Time;durP1;ratioP1;P1;durP2;ratioP2;P2;SDS_P1;SDS_P2;PMS_P1;PMS_P2;Temp;Humidity;BMP_temperature;BMP_pressure;BME280_temperature;BME280_humidity;BME280_pressure;Samples;Min_cycle;Max_cycle;Signal;HPM_P1;HPM_P2
2023/04/11 00:02:16;;;;;;;5.40;3.93;;;8.30;91.20;8.10;100292.00;;;;5025953;27;82848;-67
2023/04/11 00:04:42;;;;;;;4.50;2.67;;;8.20;91.40;8.10;100281.00;;;;5026747;27;107070;-67
2023/04/11 00:07:08;;;;;;;3.70;3.10;;;8.20;91.50;8.00;100269.00;;;;5031834;27;83102;-67
2023/04/11 00:09:34;;;;;;;3.23;2.93;;;8.20;91.80;8.00;100269.00;;;;5027049;27;112251;-65
2023/04/11 00:12:00;;;;;;;4.70;3.47;;;8.20;92.20;8.00;100271.00;;;;5028614;27;82569;-66
2023/04/11 00:14:27;;;;;;;7.53;3.17;;;8.10;92.30;7.90;100265.00;;;;5028994;27;82122;-65
2023/04/11 00:16:53;;;;;;;5.23;3.27;;;8.10;92.50;7.90;100264.00;;;;5028081;27;82804;-65
2023/04/11 00:19:22;;;;;;;6.10;2.97;;;8.00;92.70;7.80;100250.00;;;;5032572;27;103394;-65
2023/04/11 00:21:49;;;;;;;4.17;3.77;;;8.00;92.90;7.80;100246.00;;;;5030991;27;83748;-65
2023/04/11 00:24:15;;;;;;;3.73;3.27;;;7.90;93.20;7.80;100249.00;;;;5030841;27;82747;-65
2023/04/11 00:26:41;;;;;;;4.03;2.53;;;7.90;93.40;7.70;100231.00;;;;5032341;27;97480;-65
2023/04/11 00:29:07;;;;;;;6.37;3.33;;;7.80;93.60;7.70;100230.00;;;;5027702;27;111775;-65
2023/04/11 00:31:33;;;;;;;3.07;2.37;;;7.80;93.80;7.70;100228.00;;;;5028903;27;110166;-65
2023/04/11 00:33:58;;;;;;;5.40;3.67;;;7.80;94.00;7.70;100218.00;;;;5028658;27;86148;-65
2023/04/11 00:36:25;;;;;;;6.07;3.73;;;7.80;94.20;7.60;100207.00;;;;5026743;27;113265;-65
2023/04/11 00:38:51;;;;;;;4.90;3.50;;;7.70;94.50;7.70;100199.00;;;;5022057;27;82329;-64
2023/04/11 00:41:17;;;;;;;4.70;3.50;;;7.80;94.80;7.70;100205.00;;;;5007316;27;92025;-66
2023/04/11 00:43:43;;;;;;;4.87;2.77;;;8.00;95.10;7.70;100193.00;;;;5010603;27;82801;-65
2023/04/11 00:46:09;;;;;;;3.57;2.47;;;7.80;95.30;7.70;100204.00;;;;5004830;27;113765;-65
2023/04/11 00:48:35;;;;;;;3.47;2.93;;;8.00;95.50;7.70;100201.00;;;;5005359;27;114394;-65
2023/04/11 00:51:01;;;;;;;3.50;2.97;;;7.80;95.60;7.70;100191.00;;;;5006868;27;99276;-65
2023/04/11 00:53:31;;;;;;;3.77;3.27;;;7.80;95.70;7.70;100186.00;;;;5005401;27;108484;-65
2023/04/11 00:56:00;;;;;;;7.17;3.50;;;7.80;95.70;7.70;100178.00;;;;4994890;27;82937;-65
2023/04/11 00:58:26;;;;;;;7.33;3.37;;;7.90;95.90;7.70;100173.00;;;;5005803;27;113736;-65
2023/04/11 01:00:52;;;;;;;3.57;2.60;;;7.80;96.00;7.80;100179.00;;;;5005560;27;88604;-66
2023/04/11 01:03:18;;;;;;;4.90;3.73;;;7.80;96.20;7.80;100171.00;;;;5008343;27;82541;-67
2023/04/11 01:05:45;;;;;;;5.20;3.80;;;8.40;96.40;7.80;100167.00;;;;5007022;27;95713;-66
2023/04/11 01:08:12;;;;;;;3.13;2.70;;;7.90;96.50;7.80;100177.00;;;;5007739;27;83448;-66
2023/04/11 01:10:40;;;;;;;3.73;2.93;;;7.90;96.50;7.80;100173.00;;;;4991358;27;108987;-66
2023/04/11 01:13:07;;;;;;;5.77;3.20;;;8.40;96.80;7.80;100168.00;;;;5007354;27;82718;-66
2023/04/11 01:15:33;;;;;;;3.27;2.97;;;7.90;96.70;7.80;100160.00;;;;4989293;27;115419;-66
2023/04/11 01:18:00;;;;;;;4.03;2.90;;;7.90;96.80;7.80;100170.00;;;;5006100;27;112656;-66
2023/04/11 01:20:27;;;;;;;3.87;2.90;;;7.90;96.90;7.90;100158.00;;;;4988900;27;82761;-66
2023/04/11 01:22:55;;;;;;;4.03;3.47;;;8.40;97.10;7.90;100153.00;;;;5008485;27;82776;-66
2023/04/11 01:25:22;;;;;;;4.80;3.30;;;7.90;97.40;7.90;100151.00;;;;4998159;27;84094;-66
2023/04/11 01:27:48;;;;;;;5.37;3.60;;;8.00;97.10;7.90;100143.00;;;;4985431;27;102546;-67
2023/04/11 01:30:14;;;;;;;3.87;2.80;;;8.00;97.10;8.00;100156.00;;;;4998917;27;97320;-66
2023/04/11 01:32:39;;;;;;;5.03;2.60;;;8.10;97.10;8.00;100151.00;;;;4999702;27;107359;-66
2023/04/11 01:35:07;;;;;;;3.50;3.03;;;8.30;97.10;8.10;100153.00;;;;4985025;27;113847;-66
2023/04/11 01:37:33;;;;;;;4.03;2.07;;;8.10;97.10;8.20;100142.00;;;;4976307;27;107210;-66
2023/04/11 01:40:00;;;;;;;4.07;2.63;;;8.20;97.00;8.30;100138.00;;;;5010511;27;110869;-66
2023/04/11 01:42:28;;;;;;;2.90;2.00;;;8.30;96.90;8.40;100143.00;;;;5016134;27;82625;-65
2023/04/11 01:44:54;;;;;;;2.43;2.23;;;8.40;96.70;8.60;100137.00;;;;5012782;27;83576;-66
2023/04/11 01:47:20;;;;;;;6.33;2.27;;;8.60;96.30;8.80;100123.00;;;;5027176;27;94391;-66
2023/04/11 01:49:45;;;;;;;3.77;2.20;;;8.70;95.70;9.00;100127.00;;;;5026304;27;97259;-66
2023/04/11 01:52:11;;;;;;;2.83;2.10;;;9.10;95.30;9.20;100112.00;;;;5026907;27;109798;-65
2023/04/11 01:54:36;;;;;;;3.47;2.03;;;9.20;94.80;9.30;100099.00;;;;5025995;27;113416;-65
2023/04/11 01:57:03;;;;;;;4.87;2.17;;;9.30;94.30;9.50;100093.00;;;;5027136;27;114031;-66
2023/04/11 01:59:28;;;;;;;2.90;2.53;;;9.40;93.50;9.60;100083.00;;;;5026697;27;83631;-65
2023/04/11 02:01:54;;;;;;;4.87;2.53;;;9.60;93.10;9.80;100059.00;;;;5026070;27;82640;-66
2023/04/11 02:04:20;;;;;;;3.03;2.57;;;9.70;92.10;9.90;100052.00;;;;5027443;27;102584;-66
2023/04/11 02:06:45;;;;;;;2.77;1.93;;;9.90;91.60;10.10;100045.00;;;;5030592;27;83645;-65
2023/04/11 02:09:11;;;;;;;8.63;2.10;;;10.00;90.80;10.20;100047.00;;;;5028004;27;107811;-67
2023/04/11 02:11:36;;;;;;;2.50;2.07;;;10.20;90.20;10.30;100029.00;;;;5032056;27;95927;-66
2023/04/11 02:14:02;;;;;;;3.90;2.33;;;10.30;88.90;10.50;100026.00;;;;5028489;27;96460;-66
2023/04/11 02:16:28;;;;;;;5.03;2.17;;;10.40;87.70;10.60;100039.00;;;;5031368;27;103380;-66
2023/04/11 02:18:55;;;;;;;4.67;2.03;;;10.50;87.30;10.70;100017.00;;;;5029327;27;82791;-66
2023/04/11 02:21:21;;;;;;;2.93;2.20;;;10.70;84.80;10.80;100011.00;;;;5031688;27;82779;-66
2023/04/11 02:23:47;;;;;;;3.70;2.07;;;10.80;84.10;10.90;100009.00;;;;5030453;27;84190;-67
2023/04/11 02:26:12;;;;;;;3.03;2.43;;;10.80;83.10;11.00;100006.00;;;;5027366;27;105492;-66
2023/04/11 02:28:38;;;;;;;4.57;3.03;;;10.90;82.50;11.00;100006.00;;;;5027941;27;110466;-66
2023/04/11 02:31:04;;;;;;;2.93;2.17;;;11.00;81.20;11.00;100000.00;;;;5027403;27;108450;-66
2023/04/11 02:33:31;;;;;;;3.43;2.73;;;11.00;81.20;11.10;99996.00;;;;5028434;27;82558;-66
2023/04/11 02:35:56;;;;;;;4.80;2.97;;;11.10;80.30;11.10;99994.00;;;;5032137;27;83124;-66
2023/04/11 02:38:22;;;;;;;2.83;1.77;;;11.10;79.60;11.10;99994.00;;;;5025774;27;104752;-65
2023/04/11 02:40:48;;;;;;;5.47;2.03;;;11.20;79.60;11.10;99995.00;;;;5029221;27;109917;-66
2023/04/11 02:43:15;;;;;;;2.50;2.17;;;11.20;79.60;11.10;99982.00;;;;5011101;27;101233;-66
2023/04/11 02:45:41;;;;;;;3.13;1.43;;;11.10;79.00;11.10;99980.00;;;;5030185;27;82934;-66
2023/04/11 02:48:07;;;;;;;2.10;1.70;;;11.00;78.50;11.10;99968.00;;;;5028942;27;83539;-66
2023/04/11 02:50:32;;;;;;;6.40;2.53;;;11.10;78.50;11.10;99969.00;;;;5013318;27;82644;-66
2023/04/11 02:52:58;;;;;;;2.77;1.93;;;11.10;78.30;11.10;99979.00;;;;5030443;27;83873;-66
2023/04/11 02:55:24;;;;;;;2.20;2.00;;;11.10;78.30;11.10;99979.00;;;;5029196;27;83189;-66
2023/04/11 02:57:50;;;;;;;2.50;2.23;;;11.10;77.80;11.10;99977.00;;;;5027105;27;108216;-65
2023/04/11 03:00:18;;;;;;;2.77;1.67;;;11.10;78.00;11.10;99979.00;;;;5028903;27;82868;-66
2023/04/11 03:02:43;;;;;;;3.30;2.07;;;11.10;77.70;11.10;99969.00;;;;5000135;27;84511;-66
2023/04/11 03:05:09;;;;;;;3.50;1.80;;;11.10;77.70;11.10;99973.00;;;;5027463;27;111516;-65
2023/04/11 03:07:37;;;;;;;2.70;2.23;;;11.10;77.60;11.10;99973.00;;;;5030777;27;82659;-66
2023/04/11 03:10:03;;;;;;;2.80;1.80;;;11.10;77.40;11.10;99976.00;;;;5027569;27;83069;-65
2023/04/11 03:12:29;;;;;;;3.97;2.07;;;11.10;77.00;11.10;99976.00;;;;5028999;27;84851;-66
2023/04/11 03:14:54;;;;;;;1.73;1.20;;;11.10;77.00;11.10;99973.00;;;;5028702;27;84493;-65
2023/04/11 03:17:20;;;;;;;3.13;2.37;;;11.10;76.80;11.10;99977.00;;;;5031239;27;109724;-65
2023/04/11 03:19:46;;;;;;;2.83;2.17;;;11.10;76.80;11.20;99963.00;;;;5029150;27;82490;-66
2023/04/11 03:22:12;;;;;;;4.30;2.50;;;11.20;76.50;11.10;99955.00;;;;5026909;27;112775;-65
2023/04/11 03:24:40;;;;;;;4.37;2.60;;;11.10;76.50;11.10;99959.00;;;;5028994;27;84029;-65
2023/04/11 03:27:05;;;;;;;3.53;2.43;;;11.10;77.00;11.20;99960.00;;;;5030602;27;82860;-66
2023/04/11 03:29:31;;;;;;;3.03;1.80;;;11.20;76.20;11.10;99956.00;;;;5026787;27;109013;-65
2023/04/11 03:31:58;;;;;;;4.07;2.70;;;11.20;76.10;11.20;99957.00;;;;5034423;27;111607;-66
2023/04/11 03:34:25;;;;;;;3.00;2.33;;;11.20;75.80;11.10;99951.00;;;;5029161;27;94625;-66
2023/04/11 03:36:51;;;;;;;2.27;1.87;;;11.10;75.40;11.10;99956.00;;;;5028435;27;107723;-67
2023/04/11 03:39:20;;;;;;;4.47;2.13;;;11.20;75.70;11.10;99955.00;;;;5028307;27;99081;-66
2023/04/11 03:41:47;;;;;;;3.33;2.20;;;11.10;75.40;11.10;99950.00;;;;5029756;27;84077;-66
2023/04/11 03:44:13;;;;;;;3.10;2.03;;;11.20;75.20;11.10;99956.00;;;;5027012;27;103269;-66
2023/04/11 03:46:38;;;;;;;2.43;2.07;;;11.20;75.50;11.10;99939.00;;;;5029591;27;96961;-66
2023/04/11 03:49:04;;;;;;;2.17;1.97;;;11.10;75.30;11.10;99932.00;;;;5027709;27;106995;-65
2023/04/11 03:51:30;;;;;;;4.13;2.03;;;11.20;75.40;11.10;99934.00;;;;5026087;27;111474;-67
2023/04/11 03:53:56;;;;;;;3.33;2.60;;;11.10;75.50;11.10;99925.00;;;;5015091;27;83741;-65
2023/04/11 03:56:22;;;;;;;5.20;2.30;;;11.10;75.00;11.10;99923.00;;;;5026782;27;83663;-66
2023/04/11 03:58:47;;;;;;;1.80;1.40;;;11.10;75.20;11.10;99927.00;;;;5028483;27;82829;-65
2023/04/11 04:01:13;;;;;;;3.20;2.10;;;11.10;75.20;11.10;99909.00;;;;5025529;27;84348;-66
2023/04/11 04:03:39;;;;;;;2.57;2.33;;;11.10;74.80;11.10;99911.00;;;;5027219;27;111772;-66
2023/04/11 04:06:08;;;;;;;3.43;1.80;;;11.10;74.70;11.10;99914.00;;;;5030225;27;82630;-65
2023/04/11 04:08:34;;;;;;;6.00;2.00;;;11.10;74.90;11.10;99916.00;;;;5029693;27;99313;-66
2023/04/11 04:10:59;;;;;;;3.60;2.33;;;11.10;75.00;11.10;99906.00;;;;5026922;27;84010;-66
2023/04/11 04:13:26;;;;;;;3.53;1.73;;;11.10;75.20;11.10;99899.00;;;;5027184;27;113042;-65
2023/04/11 04:15:52;;;;;;;3.67;2.27;;;11.10;75.10;11.10;99905.00;;;;5027749;27;110432;-65
2023/04/11 04:18:17;;;;;;;3.93;1.80;;;11.10;75.10;11.10;99907.00;;;;5028418;27;109169;-65
2023/04/11 04:20:43;;;;;;;3.83;2.10;;;11.10;75.20;11.10;99902.00;;;;5026745;27;112701;-66
2023/04/11 04:23:12;;;;;;;2.93;2.33;;;11.10;75.20;11.10;99909.00;;;;5025914;27;112861;-65
2023/04/11 04:25:40;;;;;;;2.97;1.93;;;11.10;75.40;11.00;99895.00;;;;5029377;27;83748;-67
2023/04/11 04:28:07;;;;;;;1.67;1.57;;;11.10;75.80;11.00;99890.00;;;;5027092;27;82658;-66
2023/04/11 04:30:32;;;;;;;1.27;1.10;;;11.00;76.10;11.00;99898.00;;;;5028613;27;83234;-65
2023/04/11 04:32:58;;;;;;;1.97;1.53;;;11.10;76.30;11.00;99900.00;;;;5028539;27;83466;-65
2023/04/11 04:35:25;;;;;;;2.30;1.80;;;11.00;76.30;11.00;99900.00;;;;5026775;27;82781;-65
2023/04/11 04:37:50;;;;;;;3.57;2.20;;;11.00;76.30;11.00;99900.00;;;;5027209;27;99286;-66
2023/04/11 04:40:19;;;;;;;4.70;1.93;;;11.10;76.50;11.00;99899.00;;;;5027067;27;113105;-66
2023/04/11 04:42:48;;;;;;;2.53;2.17;;;11.10;76.80;11.00;99909.00;;;;5029263;27;82759;-65
2023/04/11 04:45:15;;;;;;;2.87;2.40;;;11.00;77.10;11.00;99908.00;;;;5029413;27;82736;-65
2023/04/11 04:47:41;;;;;;;3.23;1.57;;;11.00;78.10;10.90;99916.00;;;;5029247;27;82840;-67
2023/04/11 04:50:07;;;;;;;2.73;2.53;;;11.00;79.00;10.90;99917.00;;;;5028001;27;83801;-65
2023/04/11 04:52:33;;;;;;;1.57;1.43;;;10.90;79.30;10.80;99924.00;;;;5028903;27;84013;-65
2023/04/11 04:55:00;;;;;;;1.97;1.57;;;10.90;80.10;10.80;99922.00;;;;5029666;27;82727;-66
2023/04/11 04:57:27;;;;;;;2.23;1.47;;;10.80;81.70;10.60;99917.00;;;;5029030;27;82757;-67
2023/04/11 04:59:53;;;;;;;1.80;1.63;;;10.70;84.50;10.30;99923.00;;;;5028791;27;83435;-66
2023/04/11 05:02:20;;;;;;;2.70;2.00;;;10.50;86.60;10.00;99907.00;;;;5016039;27;82893;-65
2023/04/11 05:04:49;;;;;;;2.37;1.90;;;10.20;90.10;9.80;99917.00;;;;5023169;27;83116;-66
2023/04/11 05:07:14;;;;;;;3.53;2.23;;;10.00;91.30;9.50;99908.00;;;;5023822;27;81944;-64
2023/04/11 05:09:40;;;;;;;7.07;2.40;;;9.70;93.80;9.30;99907.00;;;;5023776;27;105925;-65
2023/04/11 05:12:07;;;;;;;2.73;1.90;;;9.50;95.70;9.00;99906.00;;;;5023232;27;104810;-66
2023/04/11 05:14:33;;;;;;;3.63;2.37;;;9.30;98.50;8.80;99906.00;;;;5026848;27;83953;-68
2023/04/11 05:16:58;;;;;;;5.83;2.63;;;9.10;99.90;8.70;99898.00;;;;5025758;27;109472;-66
2023/04/11 05:19:24;;;;;;;4.77;2.77;;;8.90;99.90;8.50;99891.00;;;;5023313;27;112736;-67
2023/04/11 05:21:50;;;;;;;2.60;2.40;;;8.70;99.90;8.50;99889.00;;;;5022199;27;110393;-66
2023/04/11 05:24:16;;;;;;;2.90;2.23;;;8.60;99.90;8.40;99877.00;;;;5023717;27;83107;-66
2023/04/11 05:26:41;;;;;;;3.97;2.13;;;8.50;99.90;8.30;99869.00;;;;5025730;27;84336;-66
2023/04/11 05:29:07;;;;;;;2.70;2.13;;;8.50;99.90;8.30;99861.00;;;;5023719;27;83831;-67
2023/04/11 05:31:33;;;;;;;3.03;2.73;;;8.40;99.90;8.20;99869.00;;;;5026242;27;102916;-67
2023/04/11 05:33:59;;;;;;;5.47;2.33;;;8.90;99.90;8.20;99865.00;;;;5021541;27;110302;-67
2023/04/11 05:36:25;;;;;;;3.70;2.27;;;8.30;99.90;8.20;99869.00;;;;5021245;27;82924;-67
2023/04/11 05:38:51;;;;;;;3.60;2.63;;;8.30;99.90;8.20;99867.00;;;;5025600;27;83958;-67
2023/04/11 05:41:16;;;;;;;4.00;2.97;;;8.40;99.90;8.20;99850.00;;;;5028713;27;93276;-69
2023/04/11 05:43:42;;;;;;;4.07;2.83;;;8.30;99.90;8.20;99857.00;;;;5028273;27;90610;-68
2023/04/11 05:46:08;;;;;;;5.53;3.10;;;8.30;99.90;8.20;99858.00;;;;5025959;27;109502;-68
2023/04/11 05:48:35;;;;;;;6.40;2.83;;;8.30;99.90;8.20;99860.00;;;;5026920;27;84048;-67
2023/04/11 05:51:00;;;;;;;3.30;2.73;;;8.40;99.90;8.20;99856.00;;;;5027473;27;83266;-67
2023/04/11 05:53:27;;;;;;;4.23;2.63;;;8.30;99.90;8.20;99858.00;;;;5025009;27;111872;-68
2023/04/11 05:55:53;;;;;;;6.93;2.97;;;8.30;99.90;8.20;99858.00;;;;5026957;27;81861;-67
2023/04/11 05:58:19;;;;;;;4.43;2.93;;;8.30;99.90;8.20;99856.00;;;;5027029;27;96093;-67
2023/04/11 06:00:45;;;;;;;3.60;2.73;;;8.30;99.90;8.20;99867.00;;;;5026113;27;83432;-68
2023/04/11 06:03:11;;;;;;;5.73;2.77;;;8.30;99.90;8.20;99854.00;;;;5024845;27;83706;-67
2023/04/11 06:05:37;;;;;;;6.23;3.67;;;8.60;99.90;8.20;99858.00;;;;5029774;27;82587;-67
2023/04/11 06:08:07;;;;;;;4.50;3.30;;;8.30;99.90;8.30;99854.00;;;;5027690;27;83561;-67
2023/04/11 06:10:33;;;;;;;3.00;2.77;;;8.30;99.90;8.20;99853.00;;;;5030375;27;83622;-67
2023/04/11 06:12:59;;;;;;;6.83;3.43;;;8.30;99.90;8.30;99861.00;;;;5025413;27;101481;-67
2023/04/11 06:15:25;;;;;;;4.57;3.40;;;8.40;99.90;8.30;99857.00;;;;5026286;27;82750;-68
2023/04/11 06:17:52;;;;;;;5.63;3.57;;;8.30;99.90;8.30;99857.00;;;;5026951;27;83763;-68
2023/04/11 06:20:19;;;;;;;5.50;3.40;;;8.40;99.90;8.30;99856.00;;;;5025651;27;83782;-68
2023/04/11 06:22:49;;;;;;;3.40;2.90;;;8.40;99.90;8.30;99854.00;;;;5025552;27;82826;-68
2023/04/11 06:25:16;;;;;;;8.73;4.10;;;8.40;99.90;8.30;99847.00;;;;5023521;27;82771;-68
2023/04/11 06:27:42;;;;;;;3.40;2.53;;;8.40;99.90;8.30;99845.00;;;;5021703;27;84792;-68
2023/04/11 06:30:08;;;;;;;3.70;3.13;;;8.40;99.90;8.30;99856.00;;;;5025054;27;113974;-67
2023/04/11 06:32:34;;;;;;;4.17;3.13;;;8.40;99.90;8.30;99854.00;;;;5026459;27;83068;-67
2023/04/11 06:35:00;;;;;;;4.00;3.57;;;8.40;99.90;8.30;99867.00;;;;5026125;27;109051;-69
2023/04/11 06:37:26;;;;;;;5.00;3.07;;;8.40;99.90;8.30;99874.00;;;;5026569;27;83211;-68
2023/04/11 06:39:51;;;;;;;3.40;3.10;;;8.40;99.90;8.30;99873.00;;;;5007422;27;84298;-67
2023/04/11 06:42:35;;;;;;;6.83;3.67;;;8.30;99.90;8.20;99882.00;;;;5030323;27;109804;-68
2023/04/11 06:45:01;;;;;;;5.37;3.83;;;8.40;99.90;8.20;99906.00;;;;5026918;27;109237;-69
2023/04/11 06:47:26;;;;;;;3.90;2.77;;;8.30;99.90;8.20;99895.00;;;;5026133;27;107134;-69
2023/04/11 06:49:52;;;;;;;3.60;3.07;;;8.30;99.90;8.20;99903.00;;;;5025707;27;112709;-68
2023/04/11 06:52:18;;;;;;;7.83;4.40;;;8.30;99.90;8.20;99906.00;;;;5026586;27;83764;-67
2023/04/11 06:54:43;;;;;;;3.50;2.83;;;8.40;99.90;8.20;99898.00;;;;5022583;27;108584;-66
2023/04/11 06:57:09;;;;;;;6.57;3.70;;;8.30;99.90;8.10;99905.00;;;;5020235;27;112677;-67
2023/04/11 06:59:35;;;;;;;4.27;2.80;;;8.30;99.90;8.10;99918.00;;;;5025520;27;82886;-66
2023/04/11 07:02:00;;;;;;;4.73;3.00;;;8.10;99.90;8.10;99918.00;;;;5018721;27;100548;-66
2023/04/11 07:04:26;;;;;;;3.37;2.83;;;8.20;99.90;8.10;99920.00;;;;5025064;27;98758;-66
2023/04/11 07:06:52;;;;;;;3.13;2.70;;;8.20;99.90;8.20;99926.00;;;;5022700;27;112323;-66
2023/04/11 07:09:17;;;;;;;4.47;3.23;;;8.20;99.90;8.20;99915.00;;;;5026152;27;113208;-66
2023/04/11 07:11:43;;;;;;;5.47;3.23;;;8.30;99.90;8.20;99929.00;;;;5027101;27;82810;-67
2023/04/11 07:14:09;;;;;;;2.43;2.23;;;8.30;99.90;8.30;99922.00;;;;5027454;27;82735;-64
2023/04/11 07:16:35;;;;;;;5.03;4.23;;;8.30;99.90;8.30;99926.00;;;;5018078;27;98795;-65
2023/04/11 07:19:02;;;;;;;5.80;3.50;;;8.40;99.90;8.30;99910.00;;;;5023570;27;104235;-65
2023/04/11 07:21:29;;;;;;;5.97;2.47;;;8.40;99.90;8.40;99903.00;;;;5016145;27;82947;-64
2023/04/11 07:23:55;;;;;;;6.53;3.47;;;8.40;99.90;8.40;99908.00;;;;5024791;27;82764;-64
2023/04/11 07:26:22;;;;;;;3.87;2.70;;;8.40;99.90;8.40;99902.00;;;;5025300;27;84295;-64
2023/04/11 07:28:48;;;;;;;5.90;3.60;;;8.40;99.90;8.50;99916.00;;;;5025998;27;82693;-63
2023/04/11 07:31:16;;;;;;;3.37;2.57;;;8.50;99.90;8.50;99913.00;;;;5021439;27;110601;-63
2023/04/11 07:33:42;;;;;;;4.70;2.63;;;8.60;99.90;8.60;99917.00;;;;5024516;27;81942;-63
2023/04/11 07:36:09;;;;;;;5.50;3.93;;;8.60;99.90;8.60;99919.00;;;;5025025;27;83054;-63
2023/04/11 07:38:36;;;;;;;6.07;3.20;;;8.60;99.90;8.60;99918.00;;;;5025073;27;83611;-64
2023/04/11 07:41:03;;;;;;;4.33;3.10;;;8.70;99.90;8.70;99917.00;;;;5022008;27;84038;-63
2023/04/11 07:43:29;;;;;;;3.70;2.30;;;8.70;99.90;8.70;99920.00;;;;5026137;27;91483;-64
2023/04/11 07:45:57;;;;;;;6.63;3.57;;;8.80;99.90;8.80;99920.00;;;;5024071;27;104339;-63
2023/04/11 07:48:25;;;;;;;4.53;3.40;;;8.80;99.90;8.80;99930.00;;;;5009304;27;83538;-62
2023/04/11 07:50:51;;;;;;;4.67;2.67;;;8.80;99.90;8.80;99923.00;;;;5023952;27;103897;-63
2023/04/11 07:53:17;;;;;;;3.20;2.43;;;8.80;99.90;8.90;99923.00;;;;5023064;27;91848;-62
2023/04/11 07:55:43;;;;;;;5.13;2.93;;;8.90;99.90;8.90;99926.00;;;;5022623;27;113320;-64
2023/04/11 07:58:08;;;;;;;4.20;3.10;;;8.90;99.90;8.90;99927.00;;;;5025218;27;96672;-63
2023/04/11 08:00:34;;;;;;;3.47;3.03;;;9.00;99.90;9.00;99923.00;;;;5023971;27;99509;-64
2023/04/11 08:03:08;;;;;;;3.23;2.70;;;9.00;99.90;9.00;99936.00;;;;5025876;27;82952;-63
2023/04/11 08:05:35;;;;;;;3.47;3.10;;;9.10;99.90;9.00;99920.00;;;;5023748;27;83499;-63
2023/04/11 08:08:03;;;;;;;4.47;2.73;;;9.10;99.90;9.10;99931.00;;;;5023606;27;83780;-63
2023/04/11 08:10:29;;;;;;;6.80;3.43;;;9.20;99.90;9.00;99929.00;;;;5025749;27;104060;-63
2023/04/11 08:12:55;;;;;;;2.97;2.67;;;9.10;99.90;9.10;99933.00;;;;5022124;27;82893;-64
2023/04/11 08:15:21;;;;;;;3.03;2.57;;;9.10;99.90;9.10;99922.00;;;;5016140;27;83518;-63
2023/04/11 08:17:48;;;;;;;4.07;2.67;;;9.10;99.90;9.10;99928.00;;;;5018096;27;111991;-64
2023/04/11 08:20:15;;;;;;;3.37;3.00;;;9.10;99.90;9.10;99933.00;;;;5023411;27;83450;-63
2023/04/11 08:22:45;;;;;;;3.67;2.60;;;9.10;99.90;9.10;99929.00;;;;5026258;27;101345;-63
2023/04/11 08:25:13;;;;;;;4.10;3.07;;;9.10;99.90;9.10;99929.00;;;;5015418;27;82885;-63
2023/04/11 08:27:39;;;;;;;4.57;2.90;;;9.20;99.90;9.20;99929.00;;;;5014837;27;82937;-64
2023/04/11 08:30:07;;;;;;;5.57;2.40;;;9.20;99.90;9.20;99932.00;;;;5023853;27;83908;-63
2023/04/11 08:32:34;;;;;;;4.43;2.47;;;9.20;99.90;9.20;99938.00;;;;5025937;27;82939;-64
2023/04/11 08:34:59;;;;;;;2.73;2.50;;;9.20;99.90;9.20;99927.00;;;;5023535;27;84034;-63
2023/04/11 08:37:26;;;;;;;4.40;2.97;;;9.20;99.90;9.20;99929.00;;;;5016503;27;89095;-63
2023/04/11 08:39:52;;;;;;;5.97;3.07;;;9.30;99.90;9.20;99926.00;;;;5018048;27;105257;-65
2023/04/11 08:42:25;;;;;;;2.93;2.17;;;9.30;99.90;9.30;99930.00;;;;5021556;27;107601;-64
2023/04/11 08:45:07;;;;;;;3.67;2.90;;;9.30;99.90;9.30;99923.00;;;;5022679;27;82819;-63
2023/04/11 08:47:34;;;;;;;3.47;2.40;;;9.30;99.90;9.30;99934.00;;;;5024864;27;83528;-63
2023/04/11 08:50:00;;;;;;;4.23;2.73;;;9.30;99.90;9.40;99939.00;;;;5025625;27;82915;-64
2023/04/11 08:52:27;;;;;;;5.70;3.17;;;9.40;99.90;9.40;99938.00;;;;5021772;27;106543;-62
2023/04/11 08:54:53;;;;;;;4.53;3.33;;;9.40;99.90;9.40;99943.00;;;;5004194;27;112753;-63
2023/04/11 08:57:26;;;;;;;4.57;2.93;;;9.50;99.90;9.40;99935.00;;;;5019024;27;88445;-63
2023/04/11 09:00:07;;;;;;;6.93;2.97;;;9.50;99.90;9.40;99930.00;;;;5015500;27;82738;-62
2023/04/11 09:02:33;;;;;;;2.90;2.10;;;9.50;99.90;9.40;99937.00;;;;5023899;27;82850;-64
2023/04/11 09:04:58;;;;;;;4.00;2.40;;;9.50;99.90;9.40;99933.00;;;;5022920;27;114105;-65
2023/04/11 09:07:25;;;;;;;6.17;3.03;;;9.50;99.90;9.40;99934.00;;;;5011574;27;111990;-66
2023/04/11 09:09:51;;;;;;;3.43;2.03;;;9.50;99.90;9.40;99935.00;;;;5023450;27;82703;-65
2023/04/11 09:12:20;;;;;;;1.80;1.70;;;9.40;99.90;9.30;99937.00;;;;5025236;27;96617;-64
2023/04/11 09:14:46;;;;;;;5.80;2.83;;;9.40;99.90;9.40;99948.00;;;;5030285;27;83956;-64
2023/04/11 09:17:15;;;;;;;6.27;2.63;;;9.40;99.90;9.40;99940.00;;;;5027404;27;111583;-66
2023/04/11 09:19:41;;;;;;;4.13;2.50;;;9.40;99.90;9.40;99941.00;;;;5027980;27;83848;-64
2023/04/11 09:22:14;;;;;;;5.70;3.42;;;9.50;99.90;9.40;99946.00;;;;4831384;27;10000645;-64
2023/04/11 09:24:40;;;;;;;7.07;4.27;;;9.40;99.90;9.40;99945.00;;;;4438063;28;10000998;-65
2023/04/11 09:27:11;;;;;;;3.83;3.00;;;9.40;99.90;9.40;99938.00;;;;4091735;28;10000965;-63
2023/04/11 09:29:47;;;;;;;7.63;2.97;;;9.40;99.90;9.40;99940.00;;;;4965472;28;84247;-64
2023/04/11 09:32:33;;;;;;;4.03;2.77;;;9.40;99.90;9.40;99938.00;;;;4964913;28;82662;-63
2023/04/11 09:35:21;;;;;;;2.93;2.47;;;9.40;99.90;9.40;99929.00;;;;4964240;28;108297;-64
2023/04/11 09:37:56;;;;;;;2.13;1.90;;;9.50;99.90;9.40;99924.00;;;;4970082;27;88788;-64
2023/04/11 09:40:25;;;;;;;4.53;2.33;;;9.40;99.90;9.40;99924.00;;;;5005091;27;87931;-64
2023/04/11 09:43:02;;;;;;;4.33;2.67;;;9.50;99.90;9.50;99918.00;;;;5007963;27;87793;-63
2023/04/11 09:45:29;;;;;;;2.33;1.83;;;9.60;99.90;9.60;99919.00;;;;5006980;27;95333;-64
2023/04/11 09:47:57;;;;;;;5.67;1.93;;;9.60;99.90;9.80;99926.00;;;;5005046;27;88963;-64
2023/04/11 09:50:25;;;;;;;2.17;1.97;;;9.70;99.90;9.90;99921.00;;;;5004798;27;88313;-64
2023/04/11 09:52:51;;;;;;;3.60;2.63;;;9.90;99.90;10.10;99917.00;;;;5005771;27;87738;-64
2023/04/11 09:55:24;;;;;;;3.57;2.40;;;10.00;99.90;10.20;99916.00;;;;5004581;27;88447;-64
2023/04/11 09:57:53;;;;;;;6.17;2.87;;;10.20;99.90;10.40;99907.00;;;;5007699;27;88188;-65
2023/04/11 10:00:23;;;;;;;10.23;2.27;;;10.40;99.90;10.60;99896.00;;;;5004521;27;87902;-63
2023/04/11 10:02:52;;;;;;;1.90;1.50;;;10.50;99.90;10.80;99900.00;;;;5005444;27;87334;-65
2023/04/11 10:05:19;;;;;;;3.50;2.73;;;10.70;99.90;11.00;99897.00;;;;5004267;27;89176;-65
2023/04/11 10:08:07;;;;;;;2.40;1.87;;;10.90;99.90;11.00;99890.00;;;;5005955;27;88630;-65
2023/04/11 10:10:34;;;;;;;3.63;1.93;;;11.00;99.90;11.10;99885.00;;;;4991345;27;88921;-64
2023/04/11 10:13:00;;;;;;;1.70;1.60;;;11.10;99.90;11.20;99879.00;;;;5004849;27;88350;-64
2023/04/11 10:15:26;;;;;;;4.97;1.60;;;11.20;99.90;11.30;99894.00;;;;5002601;27;116288;-64
2023/04/11 10:18:10;;;;;;;2.43;1.93;;;11.30;99.90;11.30;99890.00;;;;5010066;27;88229;-64
2023/04/11 10:20:39;;;;;;;2.33;1.33;;;11.30;99.90;11.40;99875.00;;;;5007365;27;87724;-66
2023/04/11 10:23:06;;;;;;;2.67;1.53;;;11.40;99.90;11.50;99886.00;;;;5005685;27;88189;-65
2023/04/11 10:26:07;;;;;;;2.90;1.43;;;11.40;99.90;11.50;99886.00;;;;5008658;27;88779;-64
2023/04/11 10:28:38;;;;;;;2.43;1.80;;;11.60;99.90;11.70;99887.00;;;;5004275;27;116965;-63
2023/04/11 10:31:16;;;;;;;5.20;1.60;;;11.60;99.90;11.80;99877.00;;;;5004623;27;87760;-62
2023/04/11 10:34:15;;;;;;;2.87;1.03;;;11.80;99.90;12.00;99882.00;;;;5007255;27;89317;-62
2023/04/11 10:37:05;;;;;;;5.03;1.47;;;11.90;99.90;12.20;99873.00;;;;5005296;27;89827;-62
2023/04/11 10:39:49;;;;;;;1.00;0.83;;;12.10;99.90;12.50;99870.00;;;;5004795;27;88137;-61
2023/04/11 10:42:45;;;;;;;2.07;1.40;;;12.40;99.90;12.90;99871.00;;;;5006802;27;88135;-63
2023/04/11 10:45:26;;;;;;;2.30;1.37;;;12.70;99.90;13.20;99876.00;;;;5008155;27;88116;-62
2023/04/11 10:48:13;;;;;;;6.33;2.07;;;13.00;99.90;13.30;99870.00;;;;5006757;27;88966;-62
2023/04/11 10:50:43;;;;;;;3.30;1.23;;;13.20;99.90;13.30;99876.00;;;;5007030;27;87938;-63
2023/04/11 10:53:34;;;;;;;1.07;0.83;;;13.30;99.90;13.10;99877.00;;;;5004934;27;88144;-63
2023/04/11 10:56:01;;;;;;;2.73;1.13;;;13.20;99.90;12.70;99886.00;;;;5008237;27;87535;-66
2023/04/11 10:58:36;;;;;;;2.07;1.10;;;12.90;99.90;12.40;99893.00;;;;5004884;27;88428;-66
2023/04/11 11:01:13;;;;;;;9.97;1.33;;;12.60;99.90;12.10;99910.00;;;;5005382;27;88668;-65
2023/04/11 11:03:39;;;;;;;2.77;1.07;;;12.30;99.90;11.70;99919.00;;;;5003633;27;89153;-65